createdAt,value
2018-12-06T00:00:40.015Z,19.17
2018-12-06T00:04:46.199Z,18.65
2018-12-06T00:08:52.191Z,18.30
2018-12-06T00:12:57.815Z,20.30
2018-12-06T00:17:03.767Z,19.60
2018-12-06T00:21:09.804Z,19.30
2018-12-06T00:25:15.748Z,20.05
2018-12-06T00:29:21.623Z,18.42
2018-12-06T00:33:27.634Z,20.50
2018-12-06T00:37:33.631Z,20.77
2018-12-06T00:41:40.934Z,20.08
2018-12-06T00:45:47.681Z,20.70
2018-12-06T00:49:55.753Z,21.68
2018-12-06T00:54:02.622Z,19.90
2018-12-06T00:58:12.987Z,22.02
2018-12-06T01:02:19.140Z,21.15
2018-12-06T01:06:25.157Z,21.68
2018-12-06T01:10:31.463Z,22.45
2018-12-06T01:14:41.774Z,23.15
2018-12-06T01:18:47.816Z,22.00
2018-12-06T01:22:53.999Z,23.40
2018-12-06T01:26:59.837Z,21.17
2018-12-06T01:31:06.128Z,21.45
2018-12-06T01:35:12.286Z,21.37
2018-12-06T01:39:18.720Z,22.27
2018-12-06T01:43:25.673Z,21.85
2018-12-06T01:47:32.634Z,21.42
2018-12-06T01:51:38.607Z,22.98
2018-12-06T01:55:44.785Z,21.73
2018-12-06T01:59:51.037Z,22.40
2018-12-06T02:03:57.768Z,22.52
2018-12-06T02:08:03.803Z,22.20
2018-12-06T02:12:09.696Z,21.17
2018-12-06T02:16:15.866Z,22.25
2018-12-06T02:20:21.528Z,23.00
2018-12-06T02:24:27.360Z,23.27
2018-12-06T02:28:33.960Z,21.85
2018-12-06T02:32:41.874Z,21.60
2018-12-06T02:36:47.844Z,21.62
2018-12-06T02:40:53.721Z,22.15
2018-12-06T02:45:06.230Z,20.85
2018-12-06T02:49:12.192Z,20.70
2018-12-06T02:53:18.094Z,22.13
2018-12-06T02:57:24.230Z,20.25
2018-12-06T03:01:30.311Z,21.07
2018-12-06T03:05:36.517Z,20.75
2018-12-06T03:09:46.249Z,21.23
2018-12-06T03:13:52.496Z,22.45
2018-12-06T03:17:58.403Z,21.68
2018-12-06T03:22:04.565Z,21.65
2018-12-06T03:26:10.816Z,22.87
2018-12-06T03:30:16.869Z,21.25
2018-12-06T03:34:23.252Z,21.73
2018-12-06T03:38:29.752Z,22.42
2018-12-06T03:42:35.666Z,21.25
2018-12-06T03:46:41.730Z,21.82
2018-12-06T03:50:47.642Z,22.30
2018-12-06T03:54:54.620Z,22.70
2018-12-06T03:59:00.573Z,23.57
2018-12-06T04:03:06.658Z,22.22
2018-12-06T04:07:12.477Z,22.15
2018-12-06T04:11:18.179Z,22.52
2018-12-06T04:15:24.154Z,22.27
2018-12-06T04:19:30.299Z,22.65
2018-12-06T04:23:36.296Z,23.38
2018-12-06T04:27:42.293Z,23.30
2018-12-06T04:31:48.332Z,22.22
2018-12-06T04:35:54.233Z,24.23
2018-12-06T04:40:00.316Z,21.77
2018-12-06T04:44:06.576Z,24.07
2018-12-06T04:48:21.498Z,22.10
2018-12-06T04:52:21.611Z,23.32
2018-12-06T04:56:27.691Z,22.07
2018-12-06T05:00:33.833Z,23.90
2018-12-06T05:04:41.393Z,22.98
2018-12-06T05:08:48.652Z,23.05
2018-12-06T05:12:54.432Z,23.30
2018-12-06T05:17:01.049Z,23.22
2018-12-06T05:21:07.255Z,24.82
2018-12-06T05:25:13.667Z,26.17
2018-12-06T05:29:20.219Z,25.35
2018-12-06T05:33:27.348Z,24.98
2018-12-06T05:37:33.453Z,27.82
2018-12-06T05:41:39.519Z,27.98
2018-12-06T05:45:46.633Z,69.15
2018-12-06T05:49:52.831Z,34.00
2018-12-06T05:53:59.166Z,31.02
2018-12-06T05:58:06.063Z,28.65
2018-12-06T06:02:11.968Z,31.25
2018-12-06T06:06:19.190Z,29.20
2018-12-06T06:10:25.398Z,29.82
2018-12-06T06:14:31.434Z,30.05
2018-12-06T06:18:38.436Z,29.92
2018-12-06T06:22:44.601Z,30.15
2018-12-06T06:26:50.944Z,31.87
2018-12-06T06:30:57.008Z,31.70
2018-12-06T06:35:02.999Z,30.77
2018-12-06T06:39:10.336Z,30.92
2018-12-06T06:43:17.803Z,33.25
2018-12-06T06:47:24.014Z,31.55
2018-12-06T06:51:30.023Z,34.05
2018-12-06T06:55:35.980Z,36.48
2018-12-06T06:59:42.360Z,36.83
2018-12-06T07:03:48.601Z,43.30
2018-12-06T07:07:54.794Z,39.45
2018-12-06T07:12:00.880Z,37.90
2018-12-06T07:16:06.931Z,37.10
2018-12-06T07:20:13.140Z,40.40
2018-12-06T07:24:19.594Z,40.10
2018-12-06T07:28:25.851Z,41.13
2018-12-06T07:32:31.789Z,36.90
2018-12-06T07:36:38.699Z,38.30
2018-12-06T07:40:44.780Z,37.48
2018-12-06T07:44:50.952Z,39.30
2018-12-06T07:48:56.933Z,39.27
2018-12-06T07:53:03.004Z,38.95
2018-12-06T07:57:09.046Z,39.73
2018-12-06T08:01:14.739Z,39.92
2018-12-06T08:05:20.391Z,38.17
2018-12-06T08:09:25.980Z,36.25
2018-12-06T08:13:31.592Z,36.40
2018-12-06T08:17:37.361Z,39.60
2018-12-06T08:21:43.145Z,38.73
2018-12-06T08:25:49.180Z,40.08
2018-12-06T08:29:54.991Z,42.35
2018-12-06T08:34:06.064Z,39.40
2018-12-06T08:38:08.245Z,41.77
2018-12-06T08:42:13.919Z,40.75
2018-12-06T08:46:19.858Z,40.40
2018-12-06T08:50:25.388Z,42.27
2018-12-06T08:54:30.960Z,41.42
2018-12-06T08:58:36.525Z,40.20
2018-12-06T09:02:43.102Z,39.67
2018-12-06T09:06:48.812Z,40.08
2018-12-06T09:10:55.568Z,38.28
2018-12-06T09:15:01.317Z,38.28
2018-12-06T09:19:07.092Z,38.75
2018-12-06T09:23:13.126Z,39.58
2018-12-06T09:27:19.634Z,40.60
2018-12-06T09:31:25.264Z,41.50
2018-12-06T09:35:31.081Z,41.25
2018-12-06T09:39:37.047Z,43.33
2018-12-06T09:43:42.733Z,42.73
2018-12-06T09:47:48.435Z,42.62
2018-12-06T09:51:54.182Z,42.20
2018-12-06T09:55:59.914Z,41.85
2018-12-06T10:00:08.147Z,43.45
2018-12-06T10:04:14.229Z,42.25
2018-12-06T10:08:23.435Z,43.55
2018-12-06T10:12:32.713Z,44.13
2018-12-06T10:16:41.859Z,44.00
2018-12-06T10:20:52.540Z,44.27
2018-12-06T10:25:00.541Z,42.75
2018-12-06T10:29:09.682Z,43.65
2018-12-06T10:33:22.299Z,40.55
2018-12-06T10:37:30.286Z,39.67
2018-12-06T10:41:36.465Z,39.27
2018-12-06T10:45:44.834Z,41.18
2018-12-06T10:49:50.930Z,40.70
2018-12-06T10:54:03.902Z,42.33
2018-12-06T10:58:13.241Z,41.45
2018-12-06T11:02:24.506Z,42.43
2018-12-06T11:06:31.239Z,43.25
2018-12-06T11:10:37.157Z,41.88
2018-12-06T11:14:43.794Z,41.83
2018-12-06T11:18:49.617Z,40.88
2018-12-06T11:22:55.289Z,41.85
2018-12-06T11:27:01.184Z,43.87
2018-12-06T11:31:09.081Z,46.42
2018-12-06T11:35:17.372Z,45.78
2018-12-06T11:39:23.818Z,44.63
2018-12-06T11:43:29.739Z,44.50
2018-12-06T11:47:35.624Z,44.05
2018-12-06T11:51:42.884Z,38.65
2018-12-06T11:55:48.679Z,40.40
2018-12-06T12:00:01.839Z,40.20
2018-12-06T12:04:07.938Z,39.65
2018-12-06T12:08:15.659Z,39.00
2018-12-06T12:12:21.852Z,43.30
2018-12-06T12:16:31.390Z,37.85
2018-12-06T12:20:37.377Z,41.08
2018-12-06T12:24:43.235Z,40.80
2018-12-06T12:28:49.341Z,40.10
2018-12-06T12:32:55.059Z,40.10
2018-12-06T12:37:00.913Z,38.30
2018-12-06T12:41:06.682Z,39.13
2018-12-06T12:45:12.698Z,38.48
2018-12-06T12:49:19.026Z,37.40
2018-12-06T12:53:25.371Z,36.03
2018-12-06T12:57:31.625Z,37.45
2018-12-06T13:01:38.172Z,35.05
2018-12-06T13:05:43.834Z,36.58
2018-12-06T13:09:49.821Z,37.75
2018-12-06T13:13:55.817Z,36.30
2018-12-06T13:18:02.414Z,36.50
2018-12-06T13:22:08.557Z,39.10
2018-12-06T13:26:14.495Z,37.48
2018-12-06T13:30:20.493Z,38.30
2018-12-06T13:34:27.308Z,39.33
2018-12-06T13:38:33.029Z,38.45
2018-12-06T13:42:38.781Z,38.02
2018-12-06T13:46:44.539Z,37.83
2018-12-06T13:50:50.397Z,35.90
2018-12-06T13:54:56.159Z,38.28
2018-12-06T13:59:01.932Z,37.63
2018-12-06T14:03:08.804Z,35.50
2018-12-06T14:07:14.812Z,35.63
2018-12-06T14:11:20.738Z,34.05
2018-12-06T14:15:26.988Z,34.45
2018-12-06T14:19:32.788Z,33.50
2018-12-06T14:23:38.651Z,33.10
2018-12-06T14:27:44.230Z,31.87
2018-12-06T14:31:50.268Z,31.48
2018-12-06T14:35:55.911Z,32.00
2018-12-06T14:40:02.353Z,32.55
2018-12-06T14:44:08.101Z,29.57
2018-12-06T14:48:21.006Z,30.95
2018-12-06T14:52:30.645Z,32.23
2018-12-06T14:56:38.034Z,33.70
2018-12-06T15:00:47.823Z,34.08
2018-12-06T15:04:55.084Z,30.37
2018-12-06T15:09:01.573Z,29.07
2018-12-06T15:13:12.758Z,31.73
2018-12-06T15:17:18.840Z,30.65
2018-12-06T15:21:27.490Z,30.15
2018-12-06T15:25:42.004Z,31.05
2018-12-06T15:29:58.131Z,30.92
2018-12-06T15:34:05.848Z,29.52
2018-12-06T15:38:15.094Z,37.95
2018-12-06T15:42:29.385Z,34.27
2018-12-06T15:46:35.932Z,32.73
2018-12-06T15:50:43.089Z,30.02
2018-12-06T15:54:51.523Z,28.32
2018-12-06T15:59:00.703Z,27.70
2018-12-06T16:03:11.681Z,28.52
2018-12-06T16:07:19.045Z,28.85
2018-12-06T16:11:28.392Z,25.55
2018-12-06T16:15:57.207Z,26.57
2018-12-06T16:20:04.333Z,25.60
2018-12-06T16:24:13.980Z,23.67
2018-12-06T16:28:24.089Z,22.95
2018-12-06T16:32:31.829Z,23.50
2018-12-06T16:36:46.261Z,22.25
2018-12-06T16:41:07.328Z,22.70
2018-12-06T16:45:15.655Z,22.35
2018-12-06T16:49:25.896Z,21.80
2018-12-06T16:53:33.864Z,21.95
2018-12-06T16:57:46.464Z,20.60
2018-12-06T17:01:54.380Z,20.68
2018-12-06T17:06:02.902Z,19.57
2018-12-06T17:10:16.981Z,20.57
2018-12-06T17:14:25.302Z,19.80
2018-12-06T17:18:36.169Z,19.02
2018-12-06T17:22:49.369Z,19.50
2018-12-06T17:26:55.935Z,18.30
2018-12-06T17:31:05.066Z,19.75
2018-12-06T17:35:18.303Z,21.42
2018-12-06T17:39:30.180Z,18.48
2018-12-06T17:43:40.175Z,18.57
2018-12-06T17:47:51.083Z,17.95
2018-12-06T17:52:04.836Z,17.65
2018-12-06T17:56:20.159Z,18.55
2018-12-06T18:00:32.824Z,17.87
2018-12-06T18:04:46.970Z,38.13
2018-12-06T18:08:56.483Z,16.82
2018-12-06T18:13:02.780Z,16.05
2018-12-06T18:17:24.128Z,15.83
2018-12-06T18:21:34.630Z,16.37
2018-12-06T18:25:45.905Z,15.35
2018-12-06T18:29:59.455Z,15.90
2018-12-06T18:34:10.440Z,17.17
2018-12-06T18:38:19.801Z,16.48
2018-12-06T18:42:29.952Z,17.00
2018-12-06T18:46:40.566Z,16.23
2018-12-06T18:50:47.585Z,16.75
2018-12-06T18:54:53.745Z,15.20
2018-12-06T18:58:59.978Z,16.37
2018-12-06T19:03:07.477Z,14.20
2018-12-06T19:07:13.684Z,14.87
2018-12-06T19:11:20.763Z,14.58
2018-12-06T19:15:28.400Z,14.80
2018-12-06T19:19:39.299Z,14.58
2018-12-06T19:23:49.961Z,14.78
2018-12-06T19:27:56.314Z,14.07
2018-12-06T19:32:03.449Z,13.58
2018-12-06T19:36:09.524Z,13.58
2018-12-06T19:40:15.889Z,13.75
2018-12-06T19:44:22.215Z,12.37
2018-12-06T19:48:28.593Z,12.90
2018-12-06T19:52:34.983Z,12.68
2018-12-06T19:56:41.842Z,12.47
2018-12-06T20:00:47.884Z,12.65
2018-12-06T20:11:23.325Z,12.97
2018-12-06T20:15:29.936Z,13.55
2018-12-06T20:19:36.188Z,13.40
2018-12-06T20:23:43.203Z,14.13
2018-12-06T20:27:50.543Z,13.98
2018-12-06T20:31:56.628Z,11.85
2018-12-06T20:36:03.166Z,11.70
2018-12-06T20:40:09.753Z,11.90
2018-12-06T20:44:15.889Z,11.35
2018-12-06T20:48:22.827Z,10.50
2018-12-06T20:52:29.079Z,11.20
2018-12-06T20:56:36.019Z,11.22
2018-12-06T21:00:42.341Z,10.82
2018-12-06T21:04:50.488Z,9.48
2018-12-06T21:08:57.539Z,10.58
2018-12-06T21:13:04.980Z,10.32
2018-12-06T21:17:12.050Z,10.72
2018-12-06T21:21:19.159Z,11.60
2018-12-06T21:25:26.749Z,10.93
2018-12-06T21:29:32.953Z,10.95
2018-12-06T21:33:39.505Z,11.10
2018-12-06T21:37:47.527Z,11.60
2018-12-06T21:41:54.807Z,10.53
2018-12-06T21:46:01.244Z,13.30
2018-12-06T21:50:15.139Z,13.50
2018-12-06T21:58:45.389Z,10.27
2018-12-06T22:02:54.126Z,9.95
2018-12-06T22:07:03.135Z,9.58
2018-12-06T22:11:09.700Z,8.48
2018-12-06T22:15:17.980Z,8.90
2018-12-06T22:19:25.562Z,8.33
2018-12-06T22:23:37.850Z,7.75
2018-12-06T22:27:46.324Z,8.00
2018-12-06T22:31:56.019Z,7.90
2018-12-06T22:36:03.638Z,7.55
2018-12-06T22:40:10.770Z,7.58
2018-12-06T22:44:18.744Z,7.22
2018-12-06T22:48:25.688Z,8.18
2018-12-06T22:52:34.231Z,8.28
2018-12-06T22:56:46.881Z,7.30
2018-12-06T23:01:04.126Z,7.05
2018-12-06T23:05:14.599Z,7.78
2018-12-06T23:09:23.932Z,7.42
2018-12-06T23:13:30.745Z,6.90
2018-12-06T23:17:42.396Z,7.30
2018-12-06T23:21:50.526Z,7.12
2018-12-06T23:25:58.704Z,7.00
2018-12-06T23:30:06.100Z,6.65
2018-12-06T23:34:15.107Z,7.25
2018-12-06T23:38:20.924Z,7.65
2018-12-06T23:42:27.024Z,11.43
2018-12-06T23:46:32.823Z,6.78
2018-12-06T23:50:39.081Z,7.03
2018-12-06T23:54:45.264Z,6.47
2018-12-06T23:58:51.320Z,6.60
